createdAt,value
2018-07-20T00:02:28.346Z,20.70
2018-07-20T00:04:57.093Z,20.70
2018-07-20T00:07:25.872Z,20.70
2018-07-20T00:09:54.724Z,20.70
2018-07-20T00:12:23.492Z,20.60
2018-07-20T00:14:52.280Z,20.60
2018-07-20T00:17:21.093Z,20.60
2018-07-20T00:19:49.854Z,20.60
2018-07-20T00:22:18.762Z,20.60
2018-07-20T00:24:47.528Z,20.50
2018-07-20T00:27:16.303Z,20.50
2018-07-20T00:32:14.039Z,20.40
2018-07-20T00:34:42.825Z,20.40
2018-07-20T00:37:11.587Z,20.40
2018-07-20T00:39:40.330Z,20.40
2018-07-20T00:42:09.167Z,20.40
2018-07-20T00:44:38.058Z,20.40
2018-07-20T00:47:06.838Z,20.40
2018-07-20T00:49:35.608Z,20.30
2018-07-20T00:54:33.129Z,20.30
2018-07-20T00:57:01.915Z,20.20
2018-07-20T00:59:30.671Z,20.20
2018-07-20T01:04:27.867Z,20.10
2018-07-20T01:06:56.632Z,20.20
2018-07-20T01:09:25.407Z,20.20
2018-07-20T01:16:51.301Z,20.00
2018-07-20T01:19:20.107Z,20.00
2018-07-20T01:21:48.855Z,20.00
2018-07-20T01:26:46.116Z,19.90
2018-07-20T01:31:43.677Z,19.90
2018-07-20T01:34:12.623Z,19.90
2018-07-20T01:36:41.449Z,19.90
2018-07-20T01:39:10.493Z,19.80
2018-07-20T01:41:39.550Z,19.80
2018-07-20T01:44:08.899Z,19.80
2018-07-20T01:46:37.894Z,19.80
2018-07-20T01:49:06.701Z,19.70
2018-07-20T01:51:35.463Z,19.70
2018-07-20T01:54:04.241Z,19.80
2018-07-20T02:01:30.009Z,19.70
2018-07-20T02:03:58.786Z,19.70
2018-07-20T02:06:27.543Z,19.60
2018-07-20T02:08:56.291Z,19.60
2018-07-20T02:11:25.079Z,19.60
2018-07-20T02:13:53.883Z,19.60
2018-07-20T02:16:22.642Z,19.60
2018-07-20T02:18:51.391Z,19.60
2018-07-20T02:21:20.148Z,19.60
2018-07-20T02:23:48.905Z,19.60
2018-07-20T02:26:17.790Z,19.60
2018-07-20T02:28:46.580Z,19.60
2018-07-20T02:31:15.444Z,19.50
2018-07-20T02:36:12.693Z,19.50
2018-07-20T02:38:41.459Z,19.50
2018-07-20T02:41:10.220Z,19.50
2018-07-20T02:43:39.072Z,19.50
2018-07-20T02:48:36.313Z,19.40
2018-07-20T02:51:05.105Z,19.40
2018-07-20T02:53:33.846Z,19.40
2018-07-20T02:56:02.656Z,19.40
2018-07-20T02:58:31.447Z,19.30
2018-07-20T03:01:00.325Z,19.40
2018-07-20T03:03:29.207Z,19.40
2018-07-20T03:05:57.995Z,19.30
2018-07-20T03:08:26.706Z,19.30
2018-07-20T03:10:55.507Z,19.30
2018-07-20T03:13:24.271Z,19.30
2018-07-20T03:15:53.057Z,19.20
2018-07-20T03:18:21.815Z,19.20
2018-07-20T03:20:50.744Z,19.20
2018-07-20T03:23:19.497Z,19.20
2018-07-20T03:30:45.267Z,19.10
2018-07-20T03:33:14.041Z,19.10
2018-07-20T03:35:42.850Z,19.10
2018-07-20T03:38:11.628Z,19.10
2018-07-20T03:45:37.323Z,19.10
2018-07-20T03:48:06.093Z,19.10
2018-07-20T03:50:34.899Z,19.10
2018-07-20T03:53:03.683Z,19.20
2018-07-20T03:55:32.499Z,19.20
2018-07-20T03:58:01.247Z,19.20
2018-07-20T04:00:30.097Z,19.20
2018-07-20T04:02:58.851Z,19.20
2018-07-20T04:05:27.709Z,19.20
2018-07-20T04:07:56.519Z,19.30
2018-07-20T04:10:25.263Z,19.30
2018-07-20T04:12:54.503Z,19.30
2018-07-20T04:15:23.376Z,19.40
2018-07-20T04:17:52.150Z,19.40
2018-07-20T04:20:20.955Z,19.50
2018-07-20T04:22:49.758Z,19.50
2018-07-20T04:25:18.568Z,19.50
2018-07-20T04:27:47.324Z,19.60
2018-07-20T04:30:16.090Z,19.60
2018-07-20T04:35:13.468Z,19.50
2018-07-20T04:37:42.289Z,19.60
2018-07-20T04:40:11.071Z,19.60
2018-07-20T04:42:39.929Z,19.70
2018-07-20T04:47:38.425Z,19.70
2018-07-20T04:52:35.798Z,19.80
2018-07-20T04:57:33.091Z,19.80
2018-07-20T05:00:01.931Z,19.90
2018-07-20T05:02:30.825Z,19.90
2018-07-20T05:04:59.532Z,19.90
2018-07-20T05:07:28.462Z,20.00
2018-07-20T05:09:57.448Z,20.00
2018-07-20T05:12:26.211Z,20.00
2018-07-20T05:17:23.409Z,20.10
2018-07-20T05:19:52.147Z,20.20
2018-07-20T05:22:20.929Z,20.20
2018-07-20T05:24:56.370Z,20.20
2018-07-20T05:27:25.231Z,20.20
2018-07-20T05:29:54.122Z,20.20
2018-07-20T05:32:22.876Z,20.20
2018-07-20T05:37:20.258Z,20.20
2018-07-20T05:39:49.118Z,20.30
2018-07-20T05:42:17.865Z,20.40
2018-07-20T05:44:46.734Z,20.40
2018-07-20T05:47:15.556Z,20.50
2018-07-20T05:49:44.380Z,20.40
2018-07-20T05:52:13.242Z,20.50
2018-07-20T05:54:42.094Z,20.50
2018-07-20T05:57:11.982Z,20.50
2018-07-20T05:59:40.763Z,20.50
2018-07-20T06:02:09.591Z,20.60
2018-07-20T06:04:38.438Z,20.60
2018-07-20T06:07:07.243Z,20.70
2018-07-20T06:09:35.976Z,20.70
2018-07-20T06:12:04.700Z,20.70
2018-07-20T06:14:33.535Z,20.70
2018-07-20T06:17:02.293Z,20.80
2018-07-20T06:19:31.111Z,20.80
2018-07-20T06:21:59.868Z,20.80
2018-07-20T06:24:28.698Z,20.90
2018-07-20T06:26:57.427Z,20.90
2018-07-20T06:29:26.218Z,20.90
2018-07-20T06:31:55.026Z,20.90
2018-07-20T06:34:23.973Z,20.90
2018-07-20T06:36:52.714Z,20.90
2018-07-20T06:39:21.494Z,20.90
2018-07-20T06:41:50.220Z,21.00
2018-07-20T06:44:19.025Z,21.00
2018-07-20T06:46:47.801Z,21.10
2018-07-20T06:49:16.547Z,21.10
2018-07-20T06:51:45.350Z,21.10
2018-07-20T06:54:14.081Z,21.10
2018-07-20T06:56:44.070Z,21.10
2018-07-20T06:59:12.956Z,21.10
2018-07-20T07:01:41.754Z,21.10
2018-07-20T07:04:10.550Z,21.10
2018-07-20T07:06:39.306Z,21.20
2018-07-20T07:11:37.780Z,21.20
2018-07-20T07:14:06.558Z,21.30
2018-07-20T07:16:35.339Z,21.30
2018-07-20T07:19:04.127Z,21.30
2018-07-20T07:21:32.903Z,21.30
2018-07-20T07:24:01.655Z,21.30
2018-07-20T07:26:30.427Z,21.40
2018-07-20T07:28:59.211Z,21.40
2018-07-20T07:31:27.936Z,21.40
2018-07-20T07:33:56.692Z,21.40
2018-07-20T07:36:25.517Z,21.50
2018-07-20T07:38:54.296Z,21.60
2018-07-20T07:41:23.038Z,21.70
2018-07-20T07:43:51.784Z,21.70
2018-07-20T07:46:20.682Z,21.70
2018-07-20T07:48:49.488Z,21.70
2018-07-20T07:51:18.233Z,21.70
2018-07-20T07:53:47.011Z,21.70
2018-07-20T07:56:15.758Z,21.70
2018-07-20T07:58:44.525Z,21.70
2018-07-20T08:01:13.314Z,21.80
2018-07-20T08:03:42.090Z,21.80
2018-07-20T08:06:10.823Z,21.80
2018-07-20T08:08:39.599Z,21.80
2018-07-20T08:11:08.372Z,21.90
2018-07-20T08:13:37.090Z,21.90
2018-07-20T08:16:05.860Z,22.00
2018-07-20T08:18:34.653Z,22.00
2018-07-20T08:21:03.414Z,22.00
2018-07-20T08:23:32.198Z,22.00
2018-07-20T08:26:01.091Z,22.00
2018-07-20T08:28:30.159Z,22.00
2018-07-20T08:33:27.381Z,22.10
2018-07-20T08:35:56.120Z,22.20
2018-07-20T08:43:21.860Z,22.30
2018-07-20T08:45:50.694Z,22.30
2018-07-20T08:48:19.663Z,22.30
2018-07-20T08:50:48.436Z,22.20
2018-07-20T08:53:17.219Z,22.20
2018-07-20T08:55:46.048Z,22.30
2018-07-20T08:58:14.848Z,22.40
2018-07-20T09:00:43.617Z,22.40
2018-07-20T09:03:12.404Z,22.50
2018-07-20T09:05:41.199Z,22.50
2018-07-20T09:08:09.973Z,22.40
2018-07-20T09:10:38.720Z,22.40
2018-07-20T09:13:07.643Z,22.50
2018-07-20T09:15:36.362Z,22.60
2018-07-20T09:18:05.154Z,22.60
2018-07-20T09:20:33.937Z,22.50
2018-07-20T09:23:02.954Z,22.60
2018-07-20T09:25:31.846Z,22.60
2018-07-20T09:28:00.594Z,22.60
2018-07-20T09:30:29.344Z,22.70
2018-07-20T09:32:58.114Z,22.70
2018-07-20T09:35:26.936Z,22.80
2018-07-20T09:37:55.670Z,22.80
2018-07-20T09:40:24.515Z,22.80
2018-07-20T09:42:53.326Z,22.90
2018-07-20T09:45:22.002Z,22.90
2018-07-20T09:47:50.744Z,22.80
2018-07-20T09:50:19.598Z,22.80
2018-07-20T09:52:48.394Z,22.90
2018-07-20T09:55:17.404Z,23.00
2018-07-20T09:57:46.291Z,23.00
2018-07-20T10:00:20.532Z,23.00
2018-07-20T10:02:49.271Z,23.00
2018-07-20T10:07:46.549Z,23.00
2018-07-20T10:10:15.290Z,23.10
2018-07-20T10:12:44.150Z,23.20
2018-07-20T10:15:12.916Z,23.10
2018-07-20T10:17:41.646Z,23.20
2018-07-20T10:20:10.406Z,23.20
2018-07-20T10:22:39.175Z,23.20
2018-07-20T10:25:07.965Z,23.20
2018-07-20T10:27:36.810Z,23.30
2018-07-20T10:30:06.068Z,23.40
2018-07-20T10:32:34.800Z,23.50
2018-07-20T10:35:03.586Z,23.50
2018-07-20T10:37:32.396Z,23.50
2018-07-20T10:40:01.199Z,23.60
2018-07-20T10:42:30.012Z,23.60
2018-07-20T10:44:58.748Z,23.60
2018-07-20T10:47:27.580Z,23.70
2018-07-20T10:49:56.337Z,23.70
2018-07-20T10:52:25.058Z,23.70
2018-07-20T10:54:53.858Z,23.70
2018-07-20T10:57:22.732Z,23.60
2018-07-20T10:59:51.461Z,23.70
2018-07-20T11:02:20.207Z,23.70
2018-07-20T11:07:17.489Z,23.70
2018-07-20T11:09:46.242Z,23.70
2018-07-20T11:12:14.996Z,23.80
2018-07-20T11:14:43.716Z,23.80
2018-07-20T11:17:12.464Z,23.80
2018-07-20T11:19:41.202Z,23.80
2018-07-20T11:27:07.337Z,24.00
2018-07-20T11:29:36.061Z,24.10
2018-07-20T11:34:33.235Z,24.20
2018-07-20T11:37:01.995Z,24.20
2018-07-20T11:39:30.757Z,24.30
2018-07-20T11:41:59.651Z,24.30
2018-07-20T11:44:28.339Z,24.30
2018-07-20T11:46:57.160Z,24.30
2018-07-20T11:49:25.923Z,24.30
2018-07-20T11:51:54.663Z,24.40
2018-07-20T11:54:23.444Z,24.40
2018-07-20T11:56:52.307Z,24.40
2018-07-20T11:59:21.091Z,24.40
2018-07-20T12:01:49.870Z,24.50
2018-07-20T12:04:18.619Z,24.60
2018-07-20T12:06:47.406Z,24.70
2018-07-20T12:11:44.660Z,24.90
2018-07-20T12:14:13.516Z,24.90
2018-07-20T12:16:42.239Z,25.00
2018-07-20T12:19:10.975Z,25.10
2018-07-20T12:21:39.821Z,25.10
2018-07-20T12:24:08.552Z,25.10
2018-07-20T12:26:37.268Z,25.20
2018-07-20T12:31:34.448Z,25.30
2018-07-20T12:46:25.653Z,25.30
2018-07-20T12:48:54.445Z,25.20
2018-07-20T12:51:23.345Z,25.30
2018-07-20T12:53:52.099Z,25.40
2018-07-20T12:56:20.888Z,25.40
2018-07-20T12:58:49.654Z,25.50
2018-07-20T13:01:18.460Z,25.50
2018-07-20T13:03:47.283Z,25.50
2018-07-20T13:06:16.069Z,25.50
2018-07-20T13:08:44.864Z,25.50
2018-07-20T13:11:13.601Z,25.50
2018-07-20T13:13:42.338Z,25.50
2018-07-20T13:16:11.136Z,25.50
2018-07-20T13:18:39.900Z,25.40
2018-07-20T13:21:08.736Z,25.40
2018-07-20T13:23:37.457Z,25.40
2018-07-20T13:26:06.252Z,25.30
2018-07-20T13:28:35.013Z,25.50
2018-07-20T13:31:03.801Z,25.50
2018-07-20T13:33:32.647Z,25.50
2018-07-20T13:36:01.439Z,25.40
2018-07-20T13:38:30.256Z,25.40
2018-07-20T13:40:59.117Z,25.50
2018-07-20T13:43:27.860Z,25.50
2018-07-20T13:45:56.702Z,25.60
2018-07-20T13:48:25.489Z,25.60
2018-07-20T13:50:54.245Z,25.60
2018-07-20T13:53:23.064Z,25.50
2018-07-20T13:55:51.799Z,25.50
2018-07-20T13:58:20.642Z,25.50
2018-07-20T14:00:49.442Z,25.50
2018-07-20T14:03:18.187Z,25.50
2018-07-20T14:05:47.011Z,25.60
2018-07-20T14:08:15.794Z,25.50
2018-07-20T14:10:44.691Z,25.50
2018-07-20T14:13:13.583Z,25.50
2018-07-20T14:15:42.368Z,25.60
2018-07-20T14:18:11.099Z,25.70
2018-07-20T14:20:39.842Z,25.70
2018-07-20T14:23:08.614Z,25.70
2018-07-20T14:30:34.553Z,25.60
2018-07-20T14:33:03.284Z,25.50
2018-07-20T14:35:32.059Z,25.50
2018-07-20T14:38:00.853Z,25.40
2018-07-20T14:40:29.634Z,25.50
2018-07-20T14:45:27.095Z,25.60
2018-07-20T14:52:52.968Z,25.70
2018-07-20T14:55:21.769Z,25.60
2018-07-20T14:57:50.550Z,25.50
2018-07-20T15:00:19.371Z,25.50
2018-07-20T15:02:48.242Z,25.50
2018-07-20T15:05:17.022Z,25.50
2018-07-20T15:07:45.748Z,25.50
2018-07-20T15:10:14.515Z,25.70
2018-07-20T15:12:43.387Z,25.70
2018-07-20T15:15:12.171Z,25.70
2018-07-20T15:17:40.906Z,25.70
2018-07-20T15:20:09.680Z,25.70
2018-07-20T15:22:38.543Z,25.70
2018-07-20T15:25:07.316Z,25.70
2018-07-20T15:30:04.900Z,25.70
2018-07-20T15:32:33.662Z,25.80
2018-07-20T15:35:02.380Z,25.80
2018-07-20T15:37:31.134Z,25.80
2018-07-20T15:39:59.856Z,25.80
2018-07-20T15:42:28.596Z,25.70
2018-07-20T15:44:57.455Z,25.70
2018-07-20T15:47:26.224Z,25.70
2018-07-20T15:49:54.966Z,25.80
2018-07-20T15:54:52.519Z,25.80
2018-07-20T15:57:21.568Z,25.80
2018-07-20T15:59:50.489Z,25.90
2018-07-20T16:02:19.194Z,25.90
2018-07-20T16:04:47.934Z,25.90
2018-07-20T16:09:45.235Z,26.00
2018-07-20T16:12:14.627Z,26.10
2018-07-20T16:14:43.382Z,26.10
2018-07-20T16:17:12.170Z,26.00
2018-07-20T16:19:40.881Z,26.10
2018-07-20T16:24:38.054Z,26.10
2018-07-20T16:27:06.795Z,26.10
2018-07-20T16:29:35.633Z,26.20
2018-07-20T16:32:04.375Z,26.20
2018-07-20T16:34:33.119Z,26.20
2018-07-20T16:37:01.867Z,26.20
2018-07-20T16:39:30.606Z,26.20
2018-07-20T16:41:59.599Z,26.30
2018-07-20T16:44:28.451Z,26.30
2018-07-20T16:49:26.663Z,26.30
2018-07-20T16:51:55.636Z,26.40
2018-07-20T16:54:24.376Z,26.40
2018-07-20T16:56:53.144Z,26.50
2018-07-20T16:59:22.052Z,26.50
2018-07-20T17:01:50.888Z,26.50
2018-07-20T17:04:19.727Z,26.50
2018-07-20T17:06:48.518Z,26.40
2018-07-20T17:09:18.039Z,26.40
2018-07-20T17:11:47.019Z,26.40
2018-07-20T17:14:15.946Z,26.40
2018-07-20T17:16:44.717Z,26.50
2018-07-20T17:19:13.644Z,26.60
2018-07-20T17:21:42.562Z,26.90
2018-07-20T17:24:11.389Z,26.90
2018-07-20T17:26:40.169Z,26.80
2018-07-20T17:29:08.960Z,26.80
2018-07-20T17:31:38.267Z,26.70
2018-07-20T17:34:07.190Z,26.70
2018-07-20T17:36:35.942Z,26.80
2018-07-20T17:39:08.119Z,26.70
2018-07-20T17:41:36.907Z,26.60
2018-07-20T17:46:40.810Z,26.40
2018-07-20T17:49:09.645Z,26.40
2018-07-20T17:51:38.554Z,26.30
2018-07-20T17:54:07.305Z,26.30
2018-07-20T17:56:36.119Z,26.30
2018-07-20T17:59:04.875Z,26.20
2018-07-20T18:01:33.841Z,26.10
2018-07-20T18:04:02.747Z,26.10
2018-07-20T18:06:31.623Z,26.00
2018-07-20T18:09:00.404Z,26.00
2018-07-20T18:11:29.275Z,26.00
2018-07-20T18:13:58.070Z,25.90
2018-07-20T18:18:55.411Z,25.90
2018-07-20T18:21:24.143Z,25.90
2018-07-20T18:23:52.873Z,25.80
2018-07-20T18:26:21.848Z,25.70
2018-07-20T18:28:50.650Z,25.70
2018-07-20T18:31:19.440Z,25.60
2018-07-20T18:33:48.306Z,25.50
2018-07-20T18:36:17.033Z,25.50
2018-07-20T18:38:45.809Z,25.50
2018-07-20T18:41:14.603Z,25.40
2018-07-20T18:43:43.419Z,25.30
2018-07-20T18:48:40.819Z,25.30
2018-07-20T18:51:09.644Z,25.30
2018-07-20T18:53:38.464Z,25.30
2018-07-20T18:56:07.321Z,25.20
2018-07-20T18:58:36.155Z,25.20
2018-07-20T19:01:05.034Z,25.00
2018-07-20T19:03:34.694Z,24.90
2018-07-20T19:06:03.494Z,24.90
2018-07-20T19:08:32.249Z,24.90
2018-07-20T19:13:29.586Z,24.90
2018-07-20T19:15:58.340Z,24.80
2018-07-20T19:18:27.157Z,24.80
2018-07-20T19:20:55.987Z,24.80
2018-07-20T19:23:24.831Z,24.80
2018-07-20T19:25:53.647Z,24.70
2018-07-20T19:28:22.574Z,24.70
2018-07-20T19:30:51.379Z,24.70
2018-07-20T19:33:20.155Z,24.60
2018-07-20T19:35:49.101Z,24.60
2018-07-20T19:38:17.990Z,24.60
2018-07-20T19:40:46.781Z,24.60
2018-07-20T19:43:15.715Z,24.50
2018-07-20T19:45:44.442Z,24.50
2018-07-20T19:48:13.295Z,24.40
2018-07-20T19:50:42.112Z,24.40
2018-07-20T19:53:10.963Z,24.40
2018-07-20T19:55:39.747Z,24.30
2018-07-20T19:58:08.748Z,24.30
2018-07-20T20:00:37.522Z,24.20
2018-07-20T20:03:06.323Z,24.20
2018-07-20T20:08:03.783Z,24.20
2018-07-20T20:13:01.001Z,24.20
2018-07-20T20:15:30.125Z,24.10
2018-07-20T20:20:27.379Z,24.00
2018-07-20T20:22:56.109Z,24.00
2018-07-20T20:25:25.035Z,24.00
2018-07-20T20:27:53.958Z,24.00
2018-07-20T20:30:22.753Z,24.00
2018-07-20T20:32:51.574Z,24.00
2018-07-20T20:35:20.372Z,23.90
2018-07-20T20:42:46.231Z,23.80
2018-07-20T20:45:14.994Z,23.80
2018-07-20T20:47:43.822Z,23.80
2018-07-20T20:50:12.734Z,23.70
2018-07-20T20:55:10.018Z,23.60
2018-07-20T20:57:38.795Z,23.60
2018-07-20T21:00:07.982Z,23.50
2018-07-20T21:02:36.882Z,23.50
2018-07-20T21:05:05.658Z,23.50
2018-07-20T21:10:03.354Z,23.40
2018-07-20T21:12:32.138Z,23.40
2018-07-20T21:15:00.928Z,23.40
2018-07-20T21:17:29.832Z,23.30
2018-07-20T21:19:58.575Z,23.30
2018-07-20T21:24:55.960Z,23.20
2018-07-20T21:27:24.874Z,23.20
2018-07-20T21:29:53.633Z,23.10
2018-07-20T21:32:22.455Z,23.00
2018-07-20T21:34:51.275Z,23.00
2018-07-20T21:37:20.151Z,23.00
2018-07-20T21:39:48.984Z,22.90
2018-07-20T21:42:17.767Z,22.90
2018-07-20T21:47:15.363Z,22.80
2018-07-20T21:49:44.293Z,22.80
2018-07-20T21:52:13.049Z,22.80
2018-07-20T21:54:41.944Z,22.80
2018-07-20T21:57:10.686Z,22.80
2018-07-20T21:59:39.464Z,22.70
2018-07-20T22:02:08.265Z,22.70
2018-07-20T22:04:37.819Z,22.70
2018-07-20T22:07:06.618Z,22.60
2018-07-20T22:09:35.355Z,22.60
2018-07-20T22:12:04.133Z,22.60
2018-07-20T22:14:32.928Z,22.50
2018-07-20T22:17:01.850Z,22.50
2018-07-20T22:21:59.527Z,22.40
2018-07-20T22:26:56.893Z,22.40
2018-07-20T22:31:54.099Z,22.30
2018-07-20T22:34:22.971Z,22.30
2018-07-20T22:36:51.759Z,22.30
2018-07-20T22:39:21.078Z,22.30
2018-07-20T22:41:49.808Z,22.20
2018-07-20T22:44:18.746Z,22.20
2018-07-20T22:46:47.731Z,22.20
2018-07-20T22:49:16.519Z,22.10
2018-07-20T22:51:45.283Z,21.90
2018-07-20T22:56:42.779Z,21.80
2018-07-20T22:59:11.579Z,21.80
2018-07-20T23:01:40.350Z,21.80
2018-07-20T23:04:09.159Z,21.80
2018-07-20T23:06:37.907Z,21.80
2018-07-20T23:09:08.195Z,21.80
2018-07-20T23:11:37.136Z,21.80
2018-07-20T23:16:34.442Z,21.80
2018-07-20T23:19:03.206Z,21.80
2018-07-20T23:21:31.967Z,21.80
2018-07-20T23:24:00.800Z,21.80
2018-07-20T23:26:29.752Z,21.70
2018-07-20T23:28:58.595Z,21.70
2018-07-20T23:31:28.168Z,21.60
2018-07-20T23:36:25.420Z,21.50
2018-07-20T23:38:54.169Z,21.50
2018-07-20T23:41:22.899Z,21.50
2018-07-20T23:43:51.647Z,21.50
2018-07-20T23:46:20.413Z,21.50
2018-07-20T23:48:49.167Z,21.50
2018-07-20T23:51:17.876Z,21.40
2018-07-20T23:53:46.623Z,21.40
2018-07-20T23:56:15.359Z,21.40
2018-07-20T23:58:44.169Z,21.40
